createdAt,value
2023-01-29T00:00:20.348Z,88.05
2023-01-29T00:02:47.023Z,88.01
2023-01-29T00:05:27.034Z,88.27
2023-01-29T00:07:55.445Z,88.30
2023-01-29T00:10:22.415Z,88.36
2023-01-29T00:12:48.897Z,88.29
2023-01-29T00:15:15.516Z,88.32
2023-01-29T00:17:41.926Z,88.60
2023-01-29T00:20:09.326Z,88.50
2023-01-29T00:22:36.703Z,88.58
2023-01-29T00:25:03.571Z,88.42
2023-01-29T00:27:30.087Z,88.61
2023-01-29T00:30:09.577Z,88.72
2023-01-29T00:32:36.399Z,88.55
2023-01-29T00:35:03.588Z,88.49
2023-01-29T00:37:30.293Z,88.41
2023-01-29T00:39:57.150Z,88.51
2023-01-29T00:42:42.410Z,88.55
2023-01-29T00:45:11.674Z,88.53
2023-01-29T00:47:38.226Z,88.66
2023-01-29T00:50:11.224Z,88.63
2023-01-29T00:52:38.507Z,88.60
2023-01-29T00:55:06.143Z,88.82
2023-01-29T00:57:34.184Z,88.71
2023-01-29T01:00:01.816Z,88.76
2023-01-29T01:02:47.368Z,88.78
2023-01-29T01:05:19.572Z,88.79
2023-01-29T01:07:51.584Z,88.90
2023-01-29T01:10:31.238Z,88.82
2023-01-29T01:13:00.553Z,89.02
2023-01-29T01:15:30.641Z,88.87
2023-01-29T01:17:59.816Z,88.88
2023-01-29T01:20:28.289Z,89.09
2023-01-29T01:22:55.462Z,89.12
2023-01-29T01:25:24.142Z,88.99
2023-01-29T01:27:54.931Z,89.10
2023-01-29T01:30:22.284Z,89.06
2023-01-29T01:32:49.137Z,89.01
2023-01-29T01:35:15.996Z,89.16
2023-01-29T01:37:42.880Z,89.04
2023-01-29T01:40:20.902Z,89.07
2023-01-29T01:42:52.795Z,88.99
2023-01-29T01:45:19.159Z,88.99
2023-01-29T01:47:52.432Z,88.98
2023-01-29T01:50:24.191Z,89.31
2023-01-29T01:52:55.297Z,88.96
2023-01-29T01:55:25.331Z,89.00
2023-01-29T01:57:57.635Z,89.04
2023-01-29T02:00:26.741Z,89.08
2023-01-29T02:03:13.769Z,89.26
2023-01-29T02:06:00.512Z,89.23
2023-01-29T02:08:58.019Z,89.06
2023-01-29T02:11:25.104Z,89.17
2023-01-29T02:13:53.525Z,89.01
2023-01-29T02:16:25.467Z,89.27
2023-01-29T02:18:52.356Z,89.19
2023-01-29T02:21:36.163Z,89.26
2023-01-29T02:24:33.951Z,89.42
2023-01-29T02:27:16.782Z,89.25
2023-01-29T02:30:09.143Z,89.47
2023-01-29T02:32:54.408Z,89.52
2023-01-29T02:35:31.941Z,89.40
2023-01-29T02:38:24.893Z,89.30
2023-01-29T02:41:10.556Z,89.49
2023-01-29T02:44:07.843Z,89.22
2023-01-29T02:46:51.148Z,89.08
2023-01-29T02:49:31.682Z,89.36
2023-01-29T02:52:36.441Z,89.30
2023-01-29T02:55:21.859Z,89.43
2023-01-29T02:57:53.877Z,89.72
2023-01-29T03:00:43.370Z,89.57
2023-01-29T03:03:25.700Z,89.69
2023-01-29T03:06:02.253Z,89.54
2023-01-29T03:08:43.088Z,89.70
2023-01-29T03:11:15.554Z,89.70
2023-01-29T03:13:45.976Z,89.86
2023-01-29T03:16:21.907Z,89.75
2023-01-29T03:18:55.264Z,89.64
2023-01-29T03:21:55.063Z,89.87
2023-01-29T03:25:06.752Z,89.91
2023-01-29T03:28:03.764Z,89.82
2023-01-29T03:30:56.949Z,89.80
2023-01-29T03:33:35.561Z,89.82
2023-01-29T03:36:08.869Z,89.89
2023-01-29T03:38:35.427Z,90.04
2023-01-29T03:41:15.683Z,90.17
2023-01-29T03:44:01.500Z,89.85
2023-01-29T03:46:38.479Z,90.13
2023-01-29T03:49:26.848Z,90.30
2023-01-29T03:52:18.860Z,90.25
2023-01-29T03:55:18.513Z,90.37
2023-01-29T03:58:00.251Z,90.42
2023-01-29T04:00:30.527Z,90.40
2023-01-29T04:03:17.939Z,90.38
2023-01-29T04:06:09.862Z,90.28
2023-01-29T04:08:50.522Z,90.49
2023-01-29T04:11:19.892Z,90.43
2023-01-29T04:13:48.231Z,90.29
2023-01-29T04:16:24.349Z,90.20
2023-01-29T04:19:00.993Z,90.27
2023-01-29T04:21:32.947Z,90.35
2023-01-29T04:23:59.733Z,90.02
2023-01-29T04:27:03.908Z,90.00
2023-01-29T04:30:03.302Z,89.97
2023-01-29T04:32:48.058Z,89.78
2023-01-29T04:35:36.215Z,89.91
2023-01-29T04:38:12.681Z,89.83
2023-01-29T04:41:05.258Z,89.71
2023-01-29T04:43:54.230Z,89.65
2023-01-29T04:46:33.369Z,89.48
2023-01-29T04:49:17.709Z,89.50
2023-01-29T04:51:49.455Z,89.39
2023-01-29T04:54:19.407Z,89.42
2023-01-29T04:57:16.863Z,89.44
2023-01-29T04:59:50.839Z,89.58
2023-01-29T05:02:19.429Z,89.74
2023-01-29T05:04:46.942Z,89.18
2023-01-29T05:07:15.500Z,89.21
2023-01-29T05:09:45.400Z,89.26
2023-01-29T05:12:14.397Z,89.04
2023-01-29T05:14:44.037Z,89.09
2023-01-29T05:17:16.748Z,89.14
2023-01-29T05:19:43.471Z,88.97
2023-01-29T05:22:13.126Z,89.00
2023-01-29T05:24:39.646Z,88.71
2023-01-29T05:27:25.063Z,88.78
2023-01-29T05:29:51.523Z,88.96
2023-01-29T05:32:17.957Z,89.00
2023-01-29T05:34:44.447Z,88.70
2023-01-29T05:37:11.211Z,88.56
2023-01-29T05:39:37.678Z,88.55
2023-01-29T05:42:04.262Z,88.67
2023-01-29T05:44:30.790Z,88.40
2023-01-29T05:46:57.337Z,88.44
2023-01-29T05:49:24.066Z,88.31
2023-01-29T05:51:50.604Z,88.39
2023-01-29T05:54:17.062Z,88.31
2023-01-29T05:56:43.497Z,88.21
2023-01-29T05:59:10.044Z,88.24
2023-01-29T06:01:39.599Z,88.28
2023-01-29T06:04:08.579Z,88.12
2023-01-29T06:06:48.962Z,88.12
2023-01-29T06:09:15.483Z,88.14
2023-01-29T06:11:41.917Z,87.95
2023-01-29T06:14:08.415Z,88.07
2023-01-29T06:16:34.997Z,87.98
2023-01-29T06:19:01.650Z,87.82
2023-01-29T06:21:28.187Z,87.82
2023-01-29T06:23:54.793Z,87.88
2023-01-29T06:26:21.328Z,87.66
2023-01-29T06:28:51.411Z,87.69
2023-01-29T06:31:37.925Z,87.31
2023-01-29T06:34:05.411Z,87.51
2023-01-29T06:36:31.892Z,87.50
2023-01-29T06:38:58.401Z,87.51
2023-01-29T06:41:25.680Z,87.21
2023-01-29T06:43:52.806Z,87.17
2023-01-29T06:46:19.591Z,87.32
2023-01-29T06:48:46.179Z,87.12
2023-01-29T06:51:12.726Z,86.95
2023-01-29T06:53:39.566Z,86.75
2023-01-29T06:56:06.612Z,86.65
2023-01-29T06:58:33.605Z,86.85
2023-01-29T07:01:15.509Z,86.92
2023-01-29T07:03:52.053Z,86.90
2023-01-29T07:06:18.891Z,86.88
2023-01-29T07:08:45.555Z,86.35
2023-01-29T07:11:12.489Z,86.54
2023-01-29T07:13:38.977Z,86.58
2023-01-29T07:16:06.843Z,86.59
2023-01-29T07:18:33.355Z,86.49
2023-01-29T07:21:04.500Z,86.69
2023-01-29T07:23:30.958Z,86.89
2023-01-29T07:26:01.141Z,86.74
2023-01-29T07:28:27.643Z,87.09
2023-01-29T07:31:00.493Z,87.06
2023-01-29T07:33:27.095Z,86.98
2023-01-29T07:35:53.804Z,86.81
2023-01-29T07:38:20.458Z,86.79
2023-01-29T07:40:47.108Z,86.96
2023-01-29T07:43:13.992Z,86.81
2023-01-29T07:45:40.816Z,86.89
2023-01-29T07:48:10.787Z,86.80
2023-01-29T07:50:37.764Z,86.73
2023-01-29T07:53:04.621Z,86.83
2023-01-29T07:55:32.589Z,86.65
2023-01-29T07:58:01.252Z,86.68
2023-01-29T08:00:28.643Z,86.63
2023-01-29T08:03:05.205Z,86.62
2023-01-29T08:05:31.660Z,86.52
2023-01-29T08:08:06.412Z,86.28
2023-01-29T08:10:34.555Z,86.23
2023-01-29T08:13:02.000Z,86.21
2023-01-29T08:15:29.553Z,86.24
2023-01-29T08:20:42.777Z,85.92
2023-01-29T08:23:14.279Z,85.76
2023-01-29T08:25:41.565Z,85.75
2023-01-29T08:28:08.714Z,85.58
2023-01-29T08:30:36.152Z,85.64
2023-01-29T08:33:04.555Z,85.40
2023-01-29T08:35:31.246Z,85.50
2023-01-29T08:38:00.083Z,85.59
2023-01-29T08:40:28.676Z,85.43
2023-01-29T08:43:03.199Z,85.28
2023-01-29T08:45:32.976Z,85.17
2023-01-29T08:47:59.530Z,85.00
2023-01-29T08:50:26.141Z,84.94
2023-01-29T08:52:58.221Z,84.85
2023-01-29T08:55:25.331Z,84.77
2023-01-29T08:57:51.791Z,84.58
2023-01-29T09:00:18.929Z,84.34
2023-01-29T09:02:45.543Z,84.29
2023-01-29T09:05:12.115Z,84.30
2023-01-29T09:07:38.708Z,84.10
2023-01-29T09:10:05.742Z,84.16
2023-01-29T09:12:32.399Z,83.97
2023-01-29T09:14:58.914Z,83.94
2023-01-29T09:17:25.449Z,83.95
2023-01-29T09:19:53.057Z,83.92
2023-01-29T09:22:20.620Z,84.12
2023-01-29T09:24:47.110Z,83.69
2023-01-29T09:27:13.630Z,83.66
2023-01-29T09:29:40.084Z,83.48
2023-01-29T09:32:07.162Z,83.58
2023-01-29T09:34:34.472Z,83.31
2023-01-29T09:37:01.061Z,83.14
2023-01-29T09:39:27.644Z,83.09
2023-01-29T09:42:20.635Z,83.22
2023-01-29T09:45:10.773Z,83.33
2023-01-29T09:47:37.441Z,83.01
2023-01-29T09:50:18.426Z,83.07
2023-01-29T09:52:55.718Z,83.05
2023-01-29T09:55:29.082Z,82.86
2023-01-29T09:58:03.604Z,82.72
2023-01-29T10:00:39.699Z,82.52
2023-01-29T10:03:09.145Z,82.73
2023-01-29T10:06:08.625Z,82.34
2023-01-29T10:09:13.784Z,82.68
2023-01-29T10:11:51.799Z,82.36
2023-01-29T10:14:25.037Z,82.31
2023-01-29T10:17:29.030Z,82.47
2023-01-29T10:20:34.724Z,82.67
2023-01-29T10:23:21.561Z,82.22
2023-01-29T10:25:49.421Z,82.17
2023-01-29T10:28:22.097Z,82.08
2023-01-29T10:30:51.869Z,82.26
2023-01-29T10:33:49.323Z,82.17
2023-01-29T10:36:46.599Z,82.05
2023-01-29T10:39:24.635Z,82.09
2023-01-29T10:42:10.126Z,82.21
2023-01-29T10:45:00.614Z,82.24
2023-01-29T10:48:21.412Z,82.10
2023-01-29T10:50:54.261Z,81.72
2023-01-29T10:53:34.766Z,81.43
2023-01-29T10:56:21.858Z,81.32
2023-01-29T10:58:56.756Z,81.50
2023-01-29T11:01:23.911Z,81.59
2023-01-29T11:03:58.550Z,81.50
2023-01-29T11:06:36.107Z,81.48
2023-01-29T11:09:21.052Z,81.64
2023-01-29T11:11:53.006Z,81.37
2023-01-29T11:14:53.199Z,81.36
2023-01-29T11:17:23.212Z,81.45
2023-01-29T11:19:51.722Z,81.24
2023-01-29T11:22:26.520Z,81.56
2023-01-29T11:25:32.766Z,81.60
2023-01-29T11:28:01.756Z,81.38
2023-01-29T11:30:35.650Z,81.30
2023-01-29T11:33:23.784Z,81.80
2023-01-29T11:35:52.539Z,81.81
2023-01-29T11:38:23.569Z,81.61
2023-01-29T11:40:50.252Z,81.37
2023-01-29T11:43:32.987Z,81.65
2023-01-29T11:46:05.922Z,81.54
2023-01-29T11:48:40.786Z,81.72
2023-01-29T11:51:08.941Z,81.86
2023-01-29T11:53:40.188Z,81.77
2023-01-29T11:56:17.684Z,82.13
2023-01-29T11:58:46.229Z,82.36
2023-01-29T12:01:16.313Z,82.04
2023-01-29T12:03:48.765Z,82.11
2023-01-29T12:06:21.773Z,82.53
2023-01-29T12:09:01.405Z,82.76
2023-01-29T12:11:31.711Z,82.79
2023-01-29T12:14:03.162Z,82.45
2023-01-29T12:16:55.027Z,82.81
2023-01-29T12:19:40.624Z,82.71
2023-01-29T12:22:44.432Z,82.88
2023-01-29T12:25:41.389Z,83.15
2023-01-29T12:28:27.859Z,83.28
2023-01-29T12:31:36.637Z,83.43
2023-01-29T12:34:20.616Z,83.36
2023-01-29T12:36:55.394Z,83.29
2023-01-29T12:39:22.099Z,83.57
2023-01-29T12:41:58.059Z,83.39
2023-01-29T12:44:33.528Z,83.16
2023-01-29T12:47:05.355Z,83.44
2023-01-29T12:49:38.035Z,83.49
2023-01-29T12:52:07.055Z,83.34
2023-01-29T12:54:45.781Z,83.45
2023-01-29T12:57:34.430Z,83.49
2023-01-29T13:00:13.451Z,83.22
2023-01-29T13:02:49.833Z,83.48
2023-01-29T13:05:25.642Z,83.31
2023-01-29T13:08:02.987Z,83.34
2023-01-29T13:10:36.859Z,83.57
2023-01-29T13:13:44.664Z,83.69
2023-01-29T13:16:13.613Z,83.76
2023-01-29T13:18:52.837Z,83.95
2023-01-29T13:21:23.652Z,83.94
2023-01-29T13:23:53.323Z,83.93
2023-01-29T13:26:21.858Z,83.64
2023-01-29T13:28:49.589Z,83.87
2023-01-29T13:31:40.715Z,83.64
2023-01-29T13:34:15.181Z,83.36
2023-01-29T13:36:48.197Z,83.41
2023-01-29T13:39:29.455Z,83.38
2023-01-29T13:41:58.207Z,83.44
2023-01-29T13:44:34.418Z,83.07
2023-01-29T13:47:05.171Z,83.07
2023-01-29T13:50:07.700Z,83.31
2023-01-29T13:52:54.761Z,83.23
2023-01-29T13:55:31.038Z,82.87
2023-01-29T13:58:02.509Z,83.04
2023-01-29T14:00:34.745Z,82.89
2023-01-29T14:03:01.166Z,83.10
2023-01-29T14:05:30.804Z,83.23
2023-01-29T14:07:59.431Z,82.80
2023-01-29T14:10:33.913Z,83.09
2023-01-29T14:13:03.405Z,83.00
2023-01-29T14:15:41.851Z,83.12
2023-01-29T14:18:08.426Z,82.91
2023-01-29T14:20:46.716Z,83.26
2023-01-29T14:23:25.221Z,83.60
2023-01-29T14:25:51.973Z,83.61
2023-01-29T14:28:24.808Z,83.28
2023-01-29T14:30:52.417Z,83.52
2023-01-29T14:33:37.838Z,83.79
2023-01-29T14:36:13.229Z,83.57
2023-01-29T14:38:46.269Z,83.55
2023-01-29T14:41:18.855Z,83.48
2023-01-29T14:43:45.392Z,83.60
2023-01-29T14:46:33.742Z,83.80
2023-01-29T14:49:00.960Z,83.46
2023-01-29T14:51:34.634Z,83.59
2023-01-29T14:54:13.218Z,83.54
2023-01-29T14:56:50.643Z,83.69
2023-01-29T14:59:22.062Z,83.64
2023-01-29T15:01:56.059Z,83.80
2023-01-29T15:04:27.295Z,83.62
2023-01-29T15:07:04.714Z,83.83
2023-01-29T15:09:36.695Z,83.74
2023-01-29T15:12:14.242Z,83.87
2023-01-29T15:14:52.300Z,83.91
2023-01-29T15:17:25.083Z,83.96
2023-01-29T15:19:51.714Z,83.81
2023-01-29T15:22:20.388Z,83.66
2023-01-29T15:25:01.836Z,83.93
2023-01-29T15:27:28.680Z,84.06
2023-01-29T15:30:02.372Z,83.81
2023-01-29T15:32:37.639Z,83.91
2023-01-29T15:35:20.223Z,83.93
2023-01-29T15:38:14.095Z,84.09
2023-01-29T15:40:40.732Z,84.09
2023-01-29T15:43:22.574Z,84.22
2023-01-29T15:45:49.872Z,84.36
2023-01-29T15:48:20.573Z,84.55
2023-01-29T15:50:50.862Z,84.59
2023-01-29T15:53:25.197Z,84.88
2023-01-29T15:55:51.820Z,84.69
2023-01-29T15:58:22.802Z,84.65
2023-01-29T16:00:55.382Z,84.76
2023-01-29T16:03:28.127Z,84.89
2023-01-29T16:05:55.312Z,84.92
2023-01-29T16:08:23.662Z,85.32
2023-01-29T16:10:56.529Z,85.30
2023-01-29T16:13:26.136Z,85.59
2023-01-29T16:16:19.599Z,85.89
2023-01-29T16:18:59.517Z,87.00
2023-01-29T16:21:37.784Z,86.54
2023-01-29T16:24:13.848Z,86.67
2023-01-29T16:26:44.800Z,87.47
2023-01-29T16:29:14.731Z,87.36
2023-01-29T16:31:44.345Z,87.54
2023-01-29T16:34:34.940Z,87.67
2023-01-29T16:37:05.432Z,88.00
2023-01-29T16:39:45.953Z,88.16
2023-01-29T16:42:12.885Z,88.85
2023-01-29T16:44:45.583Z,89.00
2023-01-29T16:47:14.562Z,89.62
2023-01-29T16:49:45.457Z,90.09
2023-01-29T16:52:20.270Z,90.26
2023-01-29T16:54:46.897Z,90.00
2023-01-29T16:57:21.502Z,90.27
2023-01-29T16:59:48.903Z,90.52
2023-01-29T17:02:26.456Z,91.02
2023-01-29T17:04:57.191Z,91.39
2023-01-29T17:07:23.756Z,91.29
2023-01-29T17:09:54.596Z,91.48
2023-01-29T17:12:23.918Z,91.41
2023-01-29T17:15:05.929Z,91.49
2023-01-29T17:17:33.060Z,91.23
2023-01-29T17:20:14.161Z,91.13
2023-01-29T17:22:40.824Z,91.14
2023-01-29T17:25:07.733Z,91.26
2023-01-29T17:27:34.227Z,91.39
2023-01-29T17:30:00.862Z,91.52
2023-01-29T17:32:39.903Z,91.36
2023-01-29T17:35:13.963Z,90.52
2023-01-29T17:37:40.823Z,90.80
2023-01-29T17:40:47.510Z,90.96
2023-01-29T17:43:14.111Z,90.58
2023-01-29T17:45:41.261Z,90.34
2023-01-29T17:48:12.749Z,90.12
2023-01-29T17:50:40.817Z,90.05
2023-01-29T17:53:07.294Z,90.14
2023-01-29T17:55:33.814Z,89.69
2023-01-29T17:58:00.321Z,89.78
2023-01-29T18:00:26.793Z,89.66
2023-01-29T18:02:54.275Z,89.53
2023-01-29T18:05:20.987Z,89.45
2023-01-29T18:07:47.949Z,89.57
2023-01-29T18:10:20.327Z,89.55
2023-01-29T18:12:47.340Z,89.36
2023-01-29T18:15:13.916Z,89.45
2023-01-29T18:17:41.295Z,89.24
2023-01-29T18:20:25.832Z,89.73
2023-01-29T18:22:52.943Z,89.64
2023-01-29T18:25:19.880Z,89.99
2023-01-29T18:27:46.526Z,89.76
2023-01-29T18:30:13.875Z,89.88
2023-01-29T18:32:40.612Z,89.69
2023-01-29T18:35:08.099Z,89.94
2023-01-29T18:37:34.751Z,90.02
2023-01-29T18:40:01.284Z,90.21
2023-01-29T18:42:31.263Z,90.17
2023-01-29T18:44:57.756Z,90.19
2023-01-29T18:47:24.408Z,90.41
2023-01-29T18:49:51.845Z,90.29
2023-01-29T18:52:18.477Z,90.38
2023-01-29T18:54:44.900Z,90.52
2023-01-29T18:57:14.921Z,90.33
2023-01-29T18:59:58.090Z,90.37
2023-01-29T19:02:24.818Z,90.79
2023-01-29T19:04:51.666Z,90.90
2023-01-29T19:07:18.134Z,90.72
2023-01-29T19:09:46.554Z,90.90
2023-01-29T19:12:13.165Z,90.83
2023-01-29T19:14:39.690Z,90.87
2023-01-29T19:17:06.348Z,90.80
2023-01-29T19:19:33.011Z,90.93
2023-01-29T19:21:59.627Z,90.94
2023-01-29T19:24:27.515Z,91.20
2023-01-29T19:26:54.100Z,90.71
2023-01-29T19:29:20.687Z,91.29
2023-01-29T19:31:47.610Z,91.37
2023-01-29T19:34:14.260Z,91.46
2023-01-29T19:36:40.915Z,91.47
2023-01-29T19:39:07.373Z,91.53
2023-01-29T19:41:34.857Z,91.75
2023-01-29T19:44:01.369Z,91.79
2023-01-29T19:46:30.072Z,91.71
2023-01-29T19:48:58.534Z,91.98
2023-01-29T19:51:27.226Z,91.92
2023-01-29T19:53:55.349Z,92.19
2023-01-29T19:56:21.826Z,92.28
2023-01-29T19:58:48.408Z,92.55
2023-01-29T20:01:20.844Z,92.55
2023-01-29T20:03:48.953Z,92.42
2023-01-29T20:06:18.067Z,92.37
2023-01-29T20:08:47.139Z,92.59
2023-01-29T20:11:15.136Z,92.72
2023-01-29T20:13:41.911Z,92.62
2023-01-29T20:16:08.856Z,93.00
2023-01-29T20:18:35.356Z,93.20
2023-01-29T20:21:16.429Z,92.96
2023-01-29T20:23:45.030Z,93.11
2023-01-29T20:26:14.763Z,93.29
2023-01-29T20:28:41.966Z,93.53
2023-01-29T20:31:09.797Z,92.96
2023-01-29T20:33:39.164Z,93.53
2023-01-29T20:36:09.041Z,93.86
2023-01-29T20:38:35.849Z,93.78
2023-01-29T20:41:07.958Z,93.70
2023-01-29T20:43:34.872Z,93.98
2023-01-29T20:46:02.352Z,94.25
2023-01-29T20:48:29.810Z,94.24
2023-01-29T20:50:56.967Z,94.42
2023-01-29T20:53:23.424Z,94.82
2023-01-29T20:55:50.007Z,94.89
2023-01-29T20:58:16.545Z,95.27
2023-01-29T21:00:44.268Z,95.32
2023-01-29T21:03:10.769Z,95.58
2023-01-29T21:05:37.239Z,95.98
2023-01-29T21:08:03.746Z,95.95
2023-01-29T21:10:30.186Z,96.25
2023-01-29T21:12:56.864Z,96.22
2023-01-29T21:15:24.644Z,96.87
2023-01-29T21:17:52.301Z,96.89
2023-01-29T21:20:19.071Z,97.09
2023-01-29T21:22:45.743Z,96.93
2023-01-29T21:25:12.256Z,97.37
2023-01-29T21:27:38.720Z,97.73
2023-01-29T21:30:05.876Z,98.13
2023-01-29T21:32:32.536Z,98.26
2023-01-29T21:34:59.039Z,98.41
2023-01-29T21:37:25.612Z,98.55
2023-01-29T21:39:52.159Z,98.99
2023-01-29T21:42:37.335Z,98.97
2023-01-29T21:45:04.285Z,99.19
2023-01-29T21:47:30.715Z,99.33
2023-01-29T21:49:57.135Z,99.17
2023-01-29T21:52:23.631Z,99.35
2023-01-29T21:54:50.248Z,99.67
2023-01-29T21:57:16.923Z,99.84
2023-01-29T21:59:43.486Z,99.88
2023-01-29T22:02:17.307Z,100.00
2023-01-29T22:04:43.932Z,100.00
2023-01-29T22:07:11.521Z,100.00
2023-01-29T22:09:38.503Z,100.00
2023-01-29T22:12:08.989Z,100.00
2023-01-29T22:14:35.724Z,100.00
2023-01-29T22:17:02.245Z,100.00
2023-01-29T22:19:29.422Z,100.00
2023-01-29T22:21:56.365Z,100.00
2023-01-29T22:24:23.498Z,100.00
2023-01-29T22:26:50.133Z,100.00
2023-01-29T22:29:17.350Z,100.00
2023-01-29T22:31:44.468Z,100.00
2023-01-29T22:34:12.560Z,100.00
2023-01-29T22:36:39.102Z,100.00
2023-01-29T22:39:09.278Z,100.00
2023-01-29T22:41:36.356Z,100.00
2023-01-29T22:44:02.997Z,100.00
2023-01-29T22:46:29.601Z,100.00
2023-01-29T22:48:56.513Z,100.00
2023-01-29T22:51:23.368Z,100.00
2023-01-29T22:53:54.704Z,100.00
2023-01-29T22:56:26.239Z,100.00
2023-01-29T22:58:54.722Z,100.00
2023-01-29T23:01:22.938Z,100.00
2023-01-29T23:03:49.618Z,100.00
2023-01-29T23:06:16.670Z,100.00
2023-01-29T23:08:43.166Z,100.00
2023-01-29T23:11:14.721Z,100.00
2023-01-29T23:13:46.894Z,100.00
2023-01-29T23:16:15.219Z,100.00
2023-01-29T23:18:42.105Z,100.00
2023-01-29T23:21:09.488Z,100.00
2023-01-29T23:23:37.253Z,100.00
2023-01-29T23:26:25.286Z,100.00
2023-01-29T23:28:51.951Z,100.00
2023-01-29T23:31:18.955Z,100.00
2023-01-29T23:33:45.495Z,100.00
2023-01-29T23:36:12.293Z,100.00
2023-01-29T23:38:39.299Z,100.00
2023-01-29T23:41:06.229Z,100.00
2023-01-29T23:43:32.968Z,100.00
2023-01-29T23:45:59.669Z,100.00
2023-01-29T23:48:26.159Z,100.00
2023-01-29T23:50:52.645Z,100.00
2023-01-29T23:53:19.200Z,100.00
2023-01-29T23:55:56.095Z,100.00
2023-01-29T23:58:22.792Z,100.00
